sensor_id;sensor_type;location;lat;lon;timestamp;P1;durP1;ratioP1;P2;durP2;ratioP2
85312;SDS011;75717;50.496;7.560;2024-02-15T00:01:03;12.50;;;4.82;;
85312;SDS011;75717;50.496;7.560;2024-02-15T00:03:29;10.73;;;4.85;;
85312;SDS011;75717;50.496;7.560;2024-02-15T00:05:56;9.38;;;4.85;;
85312;SDS011;75717;50.496;7.560;2024-02-15T00:08:22;14.93;;;5.70;;
85312;SDS011;75717;50.496;7.560;2024-02-15T00:10:47;9.67;;;5.10;;
85312;SDS011;75717;50.496;7.560;2024-02-15T00:13:12;11.13;;;5.05;;
85312;SDS011;75717;50.496;7.560;2024-02-15T00:15:38;12.73;;;6.00;;
85312;SDS011;75717;50.496;7.560;2024-02-15T00:18:04;17.13;;;5.07;;
85312;SDS011;75717;50.496;7.560;2024-02-15T00:20:29;10.85;;;5.38;;
85312;SDS011;75717;50.496;7.560;2024-02-15T00:22:54;12.73;;;5.40;;
85312;SDS011;75717;50.496;7.560;2024-02-15T00:25:21;19.65;;;5.25;;
85312;SDS011;75717;50.496;7.560;2024-02-15T00:27:46;11.38;;;4.85;;
85312;SDS011;75717;50.496;7.560;2024-02-15T00:30:11;12.23;;;4.83;;
85312;SDS011;75717;50.496;7.560;2024-02-15T00:32:37;13.55;;;5.35;;
85312;SDS011;75717;50.496;7.560;2024-02-15T00:35:03;16.10;;;6.22;;
85312;SDS011;75717;50.496;7.560;2024-02-15T00:37:32;13.45;;;5.25;;
85312;SDS011;75717;50.496;7.560;2024-02-15T00:39:58;12.05;;;5.15;;
85312;SDS011;75717;50.496;7.560;2024-02-15T00:42:23;10.57;;;5.23;;
85312;SDS011;75717;50.496;7.560;2024-02-15T00:44:48;9.30;;;5.27;;
85312;SDS011;75717;50.496;7.560;2024-02-15T00:47:14;16.05;;;5.07;;
85312;SDS011;75717;50.496;7.560;2024-02-15T00:49:40;11.10;;;4.72;;
85312;SDS011;75717;50.496;7.560;2024-02-15T00:52:05;9.60;;;4.75;;
85312;SDS011;75717;50.496;7.560;2024-02-15T00:54:31;15.13;;;4.88;;
85312;SDS011;75717;50.496;7.560;2024-02-15T00:56:56;9.35;;;4.80;;
85312;SDS011;75717;50.496;7.560;2024-02-15T00:59:21;18.20;;;5.20;;
85312;SDS011;75717;50.496;7.560;2024-02-15T01:01:47;9.85;;;4.82;;
85312;SDS011;75717;50.496;7.560;2024-02-15T01:04:13;13.02;;;5.13;;
85312;SDS011;75717;50.496;7.560;2024-02-15T01:06:38;11.02;;;4.53;;
85312;SDS011;75717;50.496;7.560;2024-02-15T01:09:03;13.23;;;5.30;;
85312;SDS011;75717;50.496;7.560;2024-02-15T01:11:29;8.87;;;4.73;;
85312;SDS011;75717;50.496;7.560;2024-02-15T01:13:57;13.10;;;5.03;;
85312;SDS011;75717;50.496;7.560;2024-02-15T01:16:23;11.55;;;4.93;;
85312;SDS011;75717;50.496;7.560;2024-02-15T01:18:49;9.45;;;5.32;;
85312;SDS011;75717;50.496;7.560;2024-02-15T01:21:14;17.48;;;4.88;;
85312;SDS011;75717;50.496;7.560;2024-02-15T01:23:40;11.73;;;5.20;;
85312;SDS011;75717;50.496;7.560;2024-02-15T01:26:05;13.10;;;5.90;;
85312;SDS011;75717;50.496;7.560;2024-02-15T01:28:30;12.60;;;5.23;;
85312;SDS011;75717;50.496;7.560;2024-02-15T01:30:56;10.53;;;4.97;;
85312;SDS011;75717;50.496;7.560;2024-02-15T01:33:21;11.25;;;5.43;;
85312;SDS011;75717;50.496;7.560;2024-02-15T01:35:47;11.95;;;5.05;;
85312;SDS011;75717;50.496;7.560;2024-02-15T01:38:13;11.27;;;5.30;;
85312;SDS011;75717;50.496;7.560;2024-02-15T01:40:38;11.85;;;4.80;;
85312;SDS011;75717;50.496;7.560;2024-02-15T01:43:04;11.82;;;5.38;;
85312;SDS011;75717;50.496;7.560;2024-02-15T01:45:29;12.97;;;5.37;;
85312;SDS011;75717;50.496;7.560;2024-02-15T01:47:56;13.52;;;5.13;;
85312;SDS011;75717;50.496;7.560;2024-02-15T01:50:21;15.88;;;5.35;;
85312;SDS011;75717;50.496;7.560;2024-02-15T01:52:48;11.90;;;4.80;;
85312;SDS011;75717;50.496;7.560;2024-02-15T01:55:15;12.50;;;5.38;;
85312;SDS011;75717;50.496;7.560;2024-02-15T01:57:43;15.75;;;5.30;;
85312;SDS011;75717;50.496;7.560;2024-02-15T02:00:09;9.27;;;5.18;;
85312;SDS011;75717;50.496;7.560;2024-02-15T02:02:35;15.93;;;5.05;;
85312;SDS011;75717;50.496;7.560;2024-02-15T02:05:02;17.33;;;5.43;;
85312;SDS011;75717;50.496;7.560;2024-02-15T02:07:27;15.15;;;5.07;;
85312;SDS011;75717;50.496;7.560;2024-02-15T02:09:53;13.85;;;5.43;;
85312;SDS011;75717;50.496;7.560;2024-02-15T02:12:18;14.50;;;5.63;;
85312;SDS011;75717;50.496;7.560;2024-02-15T02:14:43;14.10;;;6.40;;
85312;SDS011;75717;50.496;7.560;2024-02-15T02:17:15;13.83;;;5.63;;
85312;SDS011;75717;50.496;7.560;2024-02-15T02:19:41;17.55;;;5.70;;
85312;SDS011;75717;50.496;7.560;2024-02-15T02:22:08;13.35;;;5.70;;
85312;SDS011;75717;50.496;7.560;2024-02-15T02:24:34;15.48;;;5.22;;
85312;SDS011;75717;50.496;7.560;2024-02-15T02:27:03;12.57;;;4.93;;
85312;SDS011;75717;50.496;7.560;2024-02-15T02:29:30;12.90;;;5.25;;
85312;SDS011;75717;50.496;7.560;2024-02-15T02:31:56;10.65;;;5.10;;
85312;SDS011;75717;50.496;7.560;2024-02-15T02:34:22;8.55;;;4.63;;
85312;SDS011;75717;50.496;7.560;2024-02-15T02:36:47;9.77;;;4.97;;
85312;SDS011;75717;50.496;7.560;2024-02-15T02:39:13;11.20;;;4.30;;
85312;SDS011;75717;50.496;7.560;2024-02-15T02:41:38;10.60;;;5.10;;
85312;SDS011;75717;50.496;7.560;2024-02-15T02:44:03;15.40;;;5.10;;
85312;SDS011;75717;50.496;7.560;2024-02-15T02:46:29;13.82;;;5.03;;
85312;SDS011;75717;50.496;7.560;2024-02-15T02:48:55;9.82;;;4.00;;
85312;SDS011;75717;50.496;7.560;2024-02-15T02:51:20;12.23;;;5.25;;
85312;SDS011;75717;50.496;7.560;2024-02-15T02:53:46;10.60;;;4.53;;
85312;SDS011;75717;50.496;7.560;2024-02-15T02:56:11;10.85;;;4.43;;
85312;SDS011;75717;50.496;7.560;2024-02-15T02:58:37;9.10;;;4.10;;
85312;SDS011;75717;50.496;7.560;2024-02-15T03:01:07;15.45;;;4.82;;
85312;SDS011;75717;50.496;7.560;2024-02-15T03:03:33;10.27;;;4.07;;
85312;SDS011;75717;50.496;7.560;2024-02-15T03:05:58;10.25;;;4.28;;
85312;SDS011;75717;50.496;7.560;2024-02-15T03:08:24;12.82;;;4.40;;
85312;SDS011;75717;50.496;7.560;2024-02-15T03:10:49;13.27;;;4.97;;
85312;SDS011;75717;50.496;7.560;2024-02-15T03:13:16;10.18;;;4.07;;
85312;SDS011;75717;50.496;7.560;2024-02-15T03:15:44;12.48;;;4.43;;
85312;SDS011;75717;50.496;7.560;2024-02-15T03:18:12;14.00;;;4.55;;
85312;SDS011;75717;50.496;7.560;2024-02-15T03:20:39;10.88;;;4.20;;
85312;SDS011;75717;50.496;7.560;2024-02-15T03:23:05;12.40;;;4.23;;
85312;SDS011;75717;50.496;7.560;2024-02-15T03:25:30;10.77;;;4.60;;
85312;SDS011;75717;50.496;7.560;2024-02-15T03:27:56;15.10;;;4.27;;
85312;SDS011;75717;50.496;7.560;2024-02-15T03:30:23;10.23;;;3.78;;
85312;SDS011;75717;50.496;7.560;2024-02-15T03:32:55;8.65;;;4.13;;
85312;SDS011;75717;50.496;7.560;2024-02-15T03:35:21;11.07;;;4.57;;
85312;SDS011;75717;50.496;7.560;2024-02-15T03:37:47;11.80;;;3.80;;
85312;SDS011;75717;50.496;7.560;2024-02-15T03:40:16;9.30;;;4.00;;
85312;SDS011;75717;50.496;7.560;2024-02-15T03:42:42;12.98;;;4.18;;
85312;SDS011;75717;50.496;7.560;2024-02-15T03:45:07;20.83;;;5.28;;
85312;SDS011;75717;50.496;7.560;2024-02-15T03:47:33;13.52;;;4.43;;
85312;SDS011;75717;50.496;7.560;2024-02-15T03:50:00;10.00;;;4.05;;
85312;SDS011;75717;50.496;7.560;2024-02-15T03:52:29;10.15;;;3.90;;
85312;SDS011;75717;50.496;7.560;2024-02-15T03:54:58;9.75;;;3.90;;
85312;SDS011;75717;50.496;7.560;2024-02-15T03:57:24;12.02;;;4.78;;
85312;SDS011;75717;50.496;7.560;2024-02-15T03:59:50;11.65;;;4.63;;
85312;SDS011;75717;50.496;7.560;2024-02-15T04:04:44;17.17;;;4.93;;
85312;SDS011;75717;50.496;7.560;2024-02-15T04:07:15;14.00;;;3.80;;
85312;SDS011;75717;50.496;7.560;2024-02-15T04:09:43;9.75;;;3.80;;
85312;SDS011;75717;50.496;7.560;2024-02-15T04:12:09;7.47;;;3.93;;
85312;SDS011;75717;50.496;7.560;2024-02-15T04:14:34;10.50;;;4.23;;
85312;SDS011;75717;50.496;7.560;2024-02-15T04:17:00;12.27;;;3.88;;
85312;SDS011;75717;50.496;7.560;2024-02-15T04:19:26;10.90;;;3.75;;
85312;SDS011;75717;50.496;7.560;2024-02-15T04:21:52;10.65;;;3.70;;
85312;SDS011;75717;50.496;7.560;2024-02-15T04:24:17;11.95;;;3.78;;
85312;SDS011;75717;50.496;7.560;2024-02-15T04:26:42;10.27;;;3.70;;
85312;SDS011;75717;50.496;7.560;2024-02-15T04:29:08;11.98;;;4.68;;
85312;SDS011;75717;50.496;7.560;2024-02-15T04:31:35;12.57;;;3.47;;
85312;SDS011;75717;50.496;7.560;2024-02-15T04:34:04;14.95;;;3.78;;
85312;SDS011;75717;50.496;7.560;2024-02-15T04:36:29;9.53;;;3.73;;
85312;SDS011;75717;50.496;7.560;2024-02-15T04:38:59;11.50;;;3.60;;
85312;SDS011;75717;50.496;7.560;2024-02-15T04:41:24;9.68;;;3.40;;
85312;SDS011;75717;50.496;7.560;2024-02-15T04:43:50;13.35;;;4.35;;
85312;SDS011;75717;50.496;7.560;2024-02-15T04:46:16;15.25;;;3.63;;
85312;SDS011;75717;50.496;7.560;2024-02-15T04:48:42;18.42;;;4.00;;
85312;SDS011;75717;50.496;7.560;2024-02-15T04:51:08;11.45;;;3.63;;
85312;SDS011;75717;50.496;7.560;2024-02-15T04:53:34;8.48;;;3.67;;
85312;SDS011;75717;50.496;7.560;2024-02-15T04:56:01;10.15;;;3.83;;
85312;SDS011;75717;50.496;7.560;2024-02-15T04:58:31;13.25;;;3.88;;
85312;SDS011;75717;50.496;7.560;2024-02-15T05:00:58;9.43;;;3.33;;
85312;SDS011;75717;50.496;7.560;2024-02-15T05:03:24;10.13;;;3.70;;
85312;SDS011;75717;50.496;7.560;2024-02-15T05:05:49;5.73;;;3.13;;
85312;SDS011;75717;50.496;7.560;2024-02-15T05:08:15;11.63;;;3.63;;
85312;SDS011;75717;50.496;7.560;2024-02-15T05:10:40;10.10;;;4.65;;
85312;SDS011;75717;50.496;7.560;2024-02-15T05:13:06;8.13;;;3.20;;
85312;SDS011;75717;50.496;7.560;2024-02-15T05:15:31;13.30;;;3.80;;
85312;SDS011;75717;50.496;7.560;2024-02-15T05:17:58;10.35;;;3.72;;
85312;SDS011;75717;50.496;7.560;2024-02-15T05:20:23;10.30;;;3.40;;
85312;SDS011;75717;50.496;7.560;2024-02-15T05:22:52;13.63;;;4.20;;
85312;SDS011;75717;50.496;7.560;2024-02-15T05:25:20;8.93;;;3.65;;
85312;SDS011;75717;50.496;7.560;2024-02-15T05:27:47;12.85;;;3.70;;
85312;SDS011;75717;50.496;7.560;2024-02-15T05:30:13;8.10;;;3.60;;
85312;SDS011;75717;50.496;7.560;2024-02-15T05:32:39;8.07;;;3.50;;
85312;SDS011;75717;50.496;7.560;2024-02-15T05:35:09;7.40;;;3.60;;
85312;SDS011;75717;50.496;7.560;2024-02-15T05:37:35;15.63;;;4.05;;
85312;SDS011;75717;50.496;7.560;2024-02-15T05:40:01;10.63;;;3.30;;
85312;SDS011;75717;50.496;7.560;2024-02-15T05:42:26;8.60;;;3.63;;
85312;SDS011;75717;50.496;7.560;2024-02-15T05:44:52;8.75;;;2.97;;
85312;SDS011;75717;50.496;7.560;2024-02-15T05:47:17;10.00;;;4.03;;
85312;SDS011;75717;50.496;7.560;2024-02-15T05:49:42;12.98;;;3.58;;
85312;SDS011;75717;50.496;7.560;2024-02-15T05:52:08;6.43;;;3.33;;
85312;SDS011;75717;50.496;7.560;2024-02-15T05:54:33;8.18;;;3.53;;
85312;SDS011;75717;50.496;7.560;2024-02-15T05:56:59;10.23;;;3.60;;
85312;SDS011;75717;50.496;7.560;2024-02-15T05:59:25;9.30;;;3.40;;
85312;SDS011;75717;50.496;7.560;2024-02-15T06:01:51;10.63;;;3.23;;
85312;SDS011;75717;50.496;7.560;2024-02-15T06:04:16;8.57;;;3.13;;
85312;SDS011;75717;50.496;7.560;2024-02-15T06:06:41;5.25;;;3.00;;
85312;SDS011;75717;50.496;7.560;2024-02-15T06:09:07;10.20;;;3.33;;
85312;SDS011;75717;50.496;7.560;2024-02-15T06:11:33;10.03;;;2.73;;
85312;SDS011;75717;50.496;7.560;2024-02-15T06:13:58;8.53;;;3.00;;
85312;SDS011;75717;50.496;7.560;2024-02-15T06:16:23;10.40;;;3.33;;
85312;SDS011;75717;50.496;7.560;2024-02-15T06:18:49;19.83;;;3.87;;
85312;SDS011;75717;50.496;7.560;2024-02-15T06:21:14;11.38;;;3.28;;
85312;SDS011;75717;50.496;7.560;2024-02-15T06:23:39;9.47;;;2.83;;
85312;SDS011;75717;50.496;7.560;2024-02-15T06:26:05;8.30;;;2.92;;
85312;SDS011;75717;50.496;7.560;2024-02-15T06:28:31;10.68;;;2.70;;
85312;SDS011;75717;50.496;7.560;2024-02-15T06:31:15;9.20;;;3.08;;
85312;SDS011;75717;50.496;7.560;2024-02-15T06:33:59;9.02;;;2.58;;
85312;SDS011;75717;50.496;7.560;2024-02-15T06:36:45;11.88;;;2.90;;
85312;SDS011;75717;50.496;7.560;2024-02-15T06:39:30;9.82;;;2.72;;
85312;SDS011;75717;50.496;7.560;2024-02-15T06:42:13;7.35;;;2.30;;
85312;SDS011;75717;50.496;7.560;2024-02-15T06:44:43;9.98;;;2.85;;
85312;SDS011;75717;50.496;7.560;2024-02-15T06:47:09;11.77;;;2.45;;
85312;SDS011;75717;50.496;7.560;2024-02-15T06:49:36;7.15;;;2.25;;
85312;SDS011;75717;50.496;7.560;2024-02-15T06:52:04;7.45;;;2.92;;
85312;SDS011;75717;50.496;7.560;2024-02-15T06:54:33;11.90;;;4.40;;
85312;SDS011;75717;50.496;7.560;2024-02-15T06:57:05;8.23;;;2.35;;
85312;SDS011;75717;50.496;7.560;2024-02-15T06:59:30;11.50;;;2.88;;
85312;SDS011;75717;50.496;7.560;2024-02-15T07:02:00;9.63;;;2.58;;
85312;SDS011;75717;50.496;7.560;2024-02-15T07:04:25;10.13;;;3.55;;
85312;SDS011;75717;50.496;7.560;2024-02-15T07:06:51;8.30;;;2.40;;
85312;SDS011;75717;50.496;7.560;2024-02-15T07:09:19;10.32;;;2.90;;
85312;SDS011;75717;50.496;7.560;2024-02-15T07:11:49;4.72;;;2.10;;
85312;SDS011;75717;50.496;7.560;2024-02-15T07:14:15;6.90;;;2.45;;
85312;SDS011;75717;50.496;7.560;2024-02-15T07:16:44;9.45;;;2.30;;
85312;SDS011;75717;50.496;7.560;2024-02-15T07:19:10;8.35;;;2.35;;
85312;SDS011;75717;50.496;7.560;2024-02-15T07:21:36;13.70;;;2.72;;
85312;SDS011;75717;50.496;7.560;2024-02-15T07:24:02;13.40;;;2.95;;
85312;SDS011;75717;50.496;7.560;2024-02-15T07:26:29;11.93;;;3.00;;
85312;SDS011;75717;50.496;7.560;2024-02-15T07:28:55;6.68;;;2.20;;
85312;SDS011;75717;50.496;7.560;2024-02-15T07:31:21;8.93;;;2.40;;
85312;SDS011;75717;50.496;7.560;2024-02-15T07:33:47;5.90;;;2.50;;
85312;SDS011;75717;50.496;7.560;2024-02-15T07:36:13;7.30;;;2.65;;
85312;SDS011;75717;50.496;7.560;2024-02-15T07:41:09;8.25;;;2.05;;
85312;SDS011;75717;50.496;7.560;2024-02-15T07:43:34;6.80;;;2.28;;
85312;SDS011;75717;50.496;7.560;2024-02-15T07:45:59;7.87;;;2.27;;
85312;SDS011;75717;50.496;7.560;2024-02-15T07:48:24;7.13;;;2.40;;
85312;SDS011;75717;50.496;7.560;2024-02-15T07:50:50;8.03;;;2.93;;
85312;SDS011;75717;50.496;7.560;2024-02-15T07:53:15;4.80;;;2.17;;
85312;SDS011;75717;50.496;7.560;2024-02-15T07:55:41;9.15;;;2.40;;
85312;SDS011;75717;50.496;7.560;2024-02-15T07:58:09;5.25;;;2.30;;
85312;SDS011;75717;50.496;7.560;2024-02-15T08:00:34;4.88;;;2.30;;
85312;SDS011;75717;50.496;7.560;2024-02-15T08:03:00;7.35;;;1.92;;
85312;SDS011;75717;50.496;7.560;2024-02-15T08:05:25;10.27;;;2.55;;
85312;SDS011;75717;50.496;7.560;2024-02-15T08:07:51;6.65;;;2.25;;
85312;SDS011;75717;50.496;7.560;2024-02-15T08:10:17;5.13;;;2.17;;
85312;SDS011;75717;50.496;7.560;2024-02-15T08:12:43;8.65;;;2.78;;
85312;SDS011;75717;50.496;7.560;2024-02-15T08:15:10;6.75;;;2.40;;
85312;SDS011;75717;50.496;7.560;2024-02-15T08:17:39;7.65;;;2.40;;
85312;SDS011;75717;50.496;7.560;2024-02-15T08:20:06;9.43;;;2.33;;
85312;SDS011;75717;50.496;7.560;2024-02-15T08:22:35;6.72;;;2.17;;
85312;SDS011;75717;50.496;7.560;2024-02-15T08:25:04;4.03;;;1.90;;
85312;SDS011;75717;50.496;7.560;2024-02-15T08:27:35;7.90;;;3.08;;
85312;SDS011;75717;50.496;7.560;2024-02-15T08:30:05;8.85;;;2.40;;
85312;SDS011;75717;50.496;7.560;2024-02-15T08:32:33;13.02;;;2.33;;
85312;SDS011;75717;50.496;7.560;2024-02-15T08:34:59;6.80;;;2.20;;
85312;SDS011;75717;50.496;7.560;2024-02-15T08:37:24;6.25;;;2.15;;
85312;SDS011;75717;50.496;7.560;2024-02-15T08:39:49;7.80;;;2.10;;
85312;SDS011;75717;50.496;7.560;2024-02-15T08:42:15;8.43;;;2.50;;
85312;SDS011;75717;50.496;7.560;2024-02-15T08:44:41;5.27;;;2.50;;
85312;SDS011;75717;50.496;7.560;2024-02-15T08:47:06;8.70;;;2.88;;
85312;SDS011;75717;50.496;7.560;2024-02-15T08:49:31;4.57;;;2.13;;
85312;SDS011;75717;50.496;7.560;2024-02-15T08:51:57;7.63;;;3.10;;
85312;SDS011;75717;50.496;7.560;2024-02-15T08:54:23;6.18;;;2.00;;
85312;SDS011;75717;50.496;7.560;2024-02-15T08:56:50;10.90;;;2.67;;
85312;SDS011;75717;50.496;7.560;2024-02-15T08:59:17;6.25;;;2.80;;
85312;SDS011;75717;50.496;7.560;2024-02-15T09:01:42;5.70;;;2.00;;
85312;SDS011;75717;50.496;7.560;2024-02-15T09:04:08;6.25;;;2.40;;
85312;SDS011;75717;50.496;7.560;2024-02-15T09:06:33;6.03;;;2.40;;
85312;SDS011;75717;50.496;7.560;2024-02-15T09:08:59;5.20;;;2.30;;
85312;SDS011;75717;50.496;7.560;2024-02-15T09:11:28;5.97;;;2.80;;
85312;SDS011;75717;50.496;7.560;2024-02-15T09:13:54;7.03;;;3.28;;
85312;SDS011;75717;50.496;7.560;2024-02-15T09:16:20;4.75;;;2.00;;
85312;SDS011;75717;50.496;7.560;2024-02-15T09:18:46;3.97;;;2.00;;
85312;SDS011;75717;50.496;7.560;2024-02-15T09:21:12;6.85;;;2.20;;
85312;SDS011;75717;50.496;7.560;2024-02-15T09:23:37;5.27;;;2.10;;
85312;SDS011;75717;50.496;7.560;2024-02-15T09:26:03;8.27;;;1.88;;
85312;SDS011;75717;50.496;7.560;2024-02-15T09:28:29;8.13;;;2.60;;
85312;SDS011;75717;50.496;7.560;2024-02-15T09:30:56;9.20;;;2.67;;
85312;SDS011;75717;50.496;7.560;2024-02-15T09:33:24;7.20;;;3.25;;
85312;SDS011;75717;50.496;7.560;2024-02-15T09:35:51;7.53;;;3.00;;
85312;SDS011;75717;50.496;7.560;2024-02-15T09:38:16;5.63;;;2.30;;
85312;SDS011;75717;50.496;7.560;2024-02-15T09:40:42;6.22;;;2.22;;
85312;SDS011;75717;50.496;7.560;2024-02-15T09:43:08;4.75;;;2.22;;
85312;SDS011;75717;50.496;7.560;2024-02-15T09:45:34;5.65;;;2.15;;
85312;SDS011;75717;50.496;7.560;2024-02-15T09:48:02;7.28;;;1.95;;
85312;SDS011;75717;50.496;7.560;2024-02-15T09:50:32;6.45;;;2.30;;
85312;SDS011;75717;50.496;7.560;2024-02-15T09:53:00;7.03;;;2.05;;
85312;SDS011;75717;50.496;7.560;2024-02-15T09:55:31;4.80;;;1.83;;
85312;SDS011;75717;50.496;7.560;2024-02-15T09:57:56;5.75;;;1.83;;
85312;SDS011;75717;50.496;7.560;2024-02-15T10:00:23;6.60;;;2.28;;
85312;SDS011;75717;50.496;7.560;2024-02-15T10:02:52;3.60;;;2.10;;
85312;SDS011;75717;50.496;7.560;2024-02-15T10:05:18;5.43;;;2.13;;
85312;SDS011;75717;50.496;7.560;2024-02-15T10:07:44;3.65;;;2.15;;
85312;SDS011;75717;50.496;7.560;2024-02-15T10:10:14;4.15;;;2.17;;
85312;SDS011;75717;50.496;7.560;2024-02-15T10:12:46;5.03;;;2.30;;
85312;SDS011;75717;50.496;7.560;2024-02-15T10:15:34;4.38;;;2.10;;
85312;SDS011;75717;50.496;7.560;2024-02-15T10:18:01;10.35;;;2.10;;
85312;SDS011;75717;50.496;7.560;2024-02-15T10:20:28;5.07;;;2.70;;
85312;SDS011;75717;50.496;7.560;2024-02-15T10:23:08;9.30;;;3.05;;
85312;SDS011;75717;50.496;7.560;2024-02-15T10:25:34;5.63;;;2.25;;
85312;SDS011;75717;50.496;7.560;2024-02-15T10:28:11;8.75;;;2.60;;
85312;SDS011;75717;50.496;7.560;2024-02-15T10:30:40;7.15;;;2.40;;
85312;SDS011;75717;50.496;7.560;2024-02-15T10:33:08;7.28;;;1.70;;
85312;SDS011;75717;50.496;7.560;2024-02-15T10:35:34;5.68;;;1.75;;
85312;SDS011;75717;50.496;7.560;2024-02-15T10:38:06;8.73;;;2.28;;
85312;SDS011;75717;50.496;7.560;2024-02-15T10:40:38;4.53;;;2.00;;
85312;SDS011;75717;50.496;7.560;2024-02-15T10:43:06;6.20;;;1.70;;
85312;SDS011;75717;50.496;7.560;2024-02-15T10:45:32;4.00;;;2.00;;
85312;SDS011;75717;50.496;7.560;2024-02-15T10:47:59;5.63;;;1.95;;
85312;SDS011;75717;50.496;7.560;2024-02-15T10:50:24;5.18;;;1.73;;
85312;SDS011;75717;50.496;7.560;2024-02-15T10:52:56;3.67;;;1.73;;
85312;SDS011;75717;50.496;7.560;2024-02-15T10:55:40;5.20;;;2.10;;
85312;SDS011;75717;50.496;7.560;2024-02-15T10:58:08;6.40;;;2.17;;
85312;SDS011;75717;50.496;7.560;2024-02-15T11:00:35;4.72;;;1.90;;
85312;SDS011;75717;50.496;7.560;2024-02-15T11:03:04;5.80;;;2.17;;
85312;SDS011;75717;50.496;7.560;2024-02-15T11:05:34;5.20;;;1.50;;
85312;SDS011;75717;50.496;7.560;2024-02-15T11:08:03;5.25;;;1.60;;
85312;SDS011;75717;50.496;7.560;2024-02-15T11:10:30;5.65;;;2.00;;
85312;SDS011;75717;50.496;7.560;2024-02-15T11:12:55;6.60;;;2.13;;
85312;SDS011;75717;50.496;7.560;2024-02-15T11:18:02;5.70;;;2.00;;
85312;SDS011;75717;50.496;7.560;2024-02-15T11:20:49;4.05;;;2.00;;
85312;SDS011;75717;50.496;7.560;2024-02-15T11:23:15;4.00;;;1.70;;
85312;SDS011;75717;50.496;7.560;2024-02-15T11:25:48;7.40;;;1.77;;
85312;SDS011;75717;50.496;7.560;2024-02-15T11:30:46;2.58;;;1.55;;
85312;SDS011;75717;50.496;7.560;2024-02-15T11:33:30;3.92;;;1.50;;
85312;SDS011;75717;50.496;7.560;2024-02-15T11:36:06;3.97;;;1.70;;
85312;SDS011;75717;50.496;7.560;2024-02-15T11:38:36;4.40;;;1.92;;
85312;SDS011;75717;50.496;7.560;2024-02-15T11:46:16;7.85;;;1.80;;
85312;SDS011;75717;50.496;7.560;2024-02-15T11:48:46;3.72;;;1.77;;
85312;SDS011;75717;50.496;7.560;2024-02-15T11:54:08;3.47;;;1.52;;
85312;SDS011;75717;50.496;7.560;2024-02-15T11:56:55;6.53;;;1.75;;
85312;SDS011;75717;50.496;7.560;2024-02-15T11:59:50;3.22;;;1.50;;
85312;SDS011;75717;50.496;7.560;2024-02-15T12:02:37;4.43;;;1.83;;
85312;SDS011;75717;50.496;7.560;2024-02-15T12:05:22;4.68;;;1.83;;
85312;SDS011;75717;50.496;7.560;2024-02-15T12:08:06;3.13;;;1.60;;
85312;SDS011;75717;50.496;7.560;2024-02-15T12:10:59;6.78;;;2.30;;
85312;SDS011;75717;50.496;7.560;2024-02-15T12:13:43;4.88;;;1.90;;
85312;SDS011;75717;50.496;7.560;2024-02-15T12:16:27;4.90;;;1.95;;
85312;SDS011;75717;50.496;7.560;2024-02-15T12:19:11;5.53;;;1.95;;
85312;SDS011;75717;50.496;7.560;2024-02-15T12:21:36;9.95;;;1.60;;
85312;SDS011;75717;50.496;7.560;2024-02-15T12:24:06;5.45;;;1.50;;
85312;SDS011;75717;50.496;7.560;2024-02-15T12:26:32;5.85;;;1.80;;
85312;SDS011;75717;50.496;7.560;2024-02-15T12:28:59;4.00;;;1.60;;
85312;SDS011;75717;50.496;7.560;2024-02-15T12:31:26;5.60;;;1.42;;
85312;SDS011;75717;50.496;7.560;2024-02-15T12:34:02;4.97;;;1.80;;
85312;SDS011;75717;50.496;7.560;2024-02-15T12:36:34;4.18;;;1.70;;
85312;SDS011;75717;50.496;7.560;2024-02-15T12:39:02;3.38;;;1.65;;
85312;SDS011;75717;50.496;7.560;2024-02-15T12:41:35;2.80;;;1.50;;
85312;SDS011;75717;50.496;7.560;2024-02-15T12:44:00;5.28;;;1.42;;
85312;SDS011;75717;50.496;7.560;2024-02-15T12:46:27;5.00;;;1.83;;
85312;SDS011;75717;50.496;7.560;2024-02-15T12:49:05;3.13;;;1.63;;
85312;SDS011;75717;50.496;7.560;2024-02-15T12:51:51;4.40;;;1.65;;
85312;SDS011;75717;50.496;7.560;2024-02-15T12:54:21;3.28;;;1.67;;
85312;SDS011;75717;50.496;7.560;2024-02-15T12:56:46;6.25;;;2.28;;
85312;SDS011;75717;50.496;7.560;2024-02-15T12:59:18;5.43;;;1.60;;
85312;SDS011;75717;50.496;7.560;2024-02-15T13:01:46;3.72;;;1.80;;
85312;SDS011;75717;50.496;7.560;2024-02-15T13:04:23;5.55;;;1.83;;
85312;SDS011;75717;50.496;7.560;2024-02-15T13:06:53;4.53;;;1.70;;
85312;SDS011;75717;50.496;7.560;2024-02-15T13:09:18;3.10;;;1.42;;
85312;SDS011;75717;50.496;7.560;2024-02-15T13:11:44;6.30;;;2.45;;
85312;SDS011;75717;50.496;7.560;2024-02-15T13:14:11;4.68;;;1.80;;
85312;SDS011;75717;50.496;7.560;2024-02-15T13:16:37;3.83;;;1.30;;
85312;SDS011;75717;50.496;7.560;2024-02-15T13:19:02;3.83;;;1.40;;
85312;SDS011;75717;50.496;7.560;2024-02-15T13:21:32;3.70;;;1.27;;
85312;SDS011;75717;50.496;7.560;2024-02-15T13:23:59;4.45;;;1.50;;
85312;SDS011;75717;50.496;7.560;2024-02-15T13:26:24;3.13;;;1.48;;
85312;SDS011;75717;50.496;7.560;2024-02-15T13:28:51;3.80;;;1.10;;
85312;SDS011;75717;50.496;7.560;2024-02-15T13:31:17;5.65;;;2.30;;
85312;SDS011;75717;50.496;7.560;2024-02-15T13:33:43;3.20;;;1.55;;
85312;SDS011;75717;50.496;7.560;2024-02-15T13:36:08;4.30;;;1.80;;
85312;SDS011;75717;50.496;7.560;2024-02-15T13:38:36;4.40;;;1.83;;
85312;SDS011;75717;50.496;7.560;2024-02-15T13:41:02;3.58;;;1.75;;
85312;SDS011;75717;50.496;7.560;2024-02-15T13:43:28;4.32;;;1.67;;
85312;SDS011;75717;50.496;7.560;2024-02-15T13:45:53;7.72;;;1.40;;
85312;SDS011;75717;50.496;7.560;2024-02-15T13:48:19;4.72;;;1.30;;
85312;SDS011;75717;50.496;7.560;2024-02-15T13:50:45;5.60;;;1.60;;
85312;SDS011;75717;50.496;7.560;2024-02-15T13:53:10;4.50;;;1.65;;
85312;SDS011;75717;50.496;7.560;2024-02-15T13:55:38;5.20;;;1.80;;
85312;SDS011;75717;50.496;7.560;2024-02-15T13:58:04;5.63;;;1.90;;
85312;SDS011;75717;50.496;7.560;2024-02-15T14:00:30;5.57;;;1.80;;
85312;SDS011;75717;50.496;7.560;2024-02-15T14:02:59;4.35;;;1.50;;
85312;SDS011;75717;50.496;7.560;2024-02-15T14:05:28;4.00;;;1.75;;
85312;SDS011;75717;50.496;7.560;2024-02-15T14:07:55;5.75;;;1.60;;
85312;SDS011;75717;50.496;7.560;2024-02-15T14:10:22;8.77;;;2.20;;
85312;SDS011;75717;50.496;7.560;2024-02-15T14:12:49;7.65;;;2.05;;
85312;SDS011;75717;50.496;7.560;2024-02-15T14:15:17;4.00;;;2.28;;
85312;SDS011;75717;50.496;7.560;2024-02-15T14:17:42;5.40;;;2.28;;
85312;SDS011;75717;50.496;7.560;2024-02-15T14:20:09;3.88;;;1.80;;
85312;SDS011;75717;50.496;7.560;2024-02-15T14:22:38;3.08;;;1.42;;
85312;SDS011;75717;50.496;7.560;2024-02-15T14:25:04;4.20;;;1.77;;
85312;SDS011;75717;50.496;7.560;2024-02-15T14:27:30;4.57;;;1.70;;
85312;SDS011;75717;50.496;7.560;2024-02-15T14:29:57;5.07;;;1.65;;
85312;SDS011;75717;50.496;7.560;2024-02-15T14:32:41;9.57;;;1.75;;
85312;SDS011;75717;50.496;7.560;2024-02-15T14:35:24;7.45;;;1.77;;
85312;SDS011;75717;50.496;7.560;2024-02-15T14:37:50;4.28;;;1.70;;
85312;SDS011;75717;50.496;7.560;2024-02-15T14:40:15;5.82;;;1.65;;
85312;SDS011;75717;50.496;7.560;2024-02-15T14:42:41;4.97;;;2.15;;
85312;SDS011;75717;50.496;7.560;2024-02-15T14:45:13;8.27;;;1.88;;
85312;SDS011;75717;50.496;7.560;2024-02-15T14:47:38;5.50;;;1.70;;
85312;SDS011;75717;50.496;7.560;2024-02-15T14:50:04;5.30;;;2.15;;
85312;SDS011;75717;50.496;7.560;2024-02-15T14:52:33;5.22;;;2.30;;
85312;SDS011;75717;50.496;7.560;2024-02-15T14:55:02;6.55;;;1.98;;
85312;SDS011;75717;50.496;7.560;2024-02-15T14:57:32;6.93;;;1.95;;
85312;SDS011;75717;50.496;7.560;2024-02-15T14:59:59;8.10;;;1.80;;
85312;SDS011;75717;50.496;7.560;2024-02-15T15:02:24;3.75;;;1.85;;
85312;SDS011;75717;50.496;7.560;2024-02-15T15:04:50;5.20;;;1.70;;